sensor_id;sensor_type;location;lat;lon;timestamp;P1;durP1;ratioP1;P2;durP2;ratioP2
43861;SDS011;29510;52.140;5.034;2022-12-10T00:02:12;31.05;;;15.98;;
43861;SDS011;29510;52.140;5.034;2022-12-10T00:12:13;35.00;;;18.55;;
43861;SDS011;29510;52.140;5.034;2022-12-10T00:22:14;38.60;;;18.50;;
43861;SDS011;29510;52.140;5.034;2022-12-10T00:32:15;38.00;;;19.02;;
43861;SDS011;29510;52.140;5.034;2022-12-10T00:42:16;32.97;;;14.57;;
43861;SDS011;29510;52.140;5.034;2022-12-10T00:52:17;26.85;;;14.90;;
43861;SDS011;29510;52.140;5.034;2022-12-10T01:02:18;72.30;;;20.23;;
43861;SDS011;29510;52.140;5.034;2022-12-10T01:12:19;105.43;;;19.30;;
43861;SDS011;29510;52.140;5.034;2022-12-10T01:22:20;45.65;;;17.08;;
43861;SDS011;29510;52.140;5.034;2022-12-10T01:32:21;39.85;;;17.40;;
43861;SDS011;29510;52.140;5.034;2022-12-10T01:42:22;58.17;;;21.00;;
43861;SDS011;29510;52.140;5.034;2022-12-10T01:52:23;46.67;;;21.77;;
43861;SDS011;29510;52.140;5.034;2022-12-10T02:12:48;100.25;;;28.67;;
43861;SDS011;29510;52.140;5.034;2022-12-10T02:22:55;140.15;;;32.17;;
43861;SDS011;29510;52.140;5.034;2022-12-10T02:33:01;44.85;;;22.10;;
43861;SDS011;29510;52.140;5.034;2022-12-10T02:43:06;53.55;;;22.65;;
43861;SDS011;29510;52.140;5.034;2022-12-10T02:53:09;72.40;;;27.15;;
43861;SDS011;29510;52.140;5.034;2022-12-10T03:13:14;49.88;;;22.95;;
43861;SDS011;29510;52.140;5.034;2022-12-10T03:23:18;93.30;;;23.02;;
43861;SDS011;29510;52.140;5.034;2022-12-10T03:33:20;39.50;;;17.65;;
43861;SDS011;29510;52.140;5.034;2022-12-10T03:43:21;39.35;;;20.33;;
43861;SDS011;29510;52.140;5.034;2022-12-10T03:53:22;42.45;;;21.13;;
43861;SDS011;29510;52.140;5.034;2022-12-10T04:03:23;110.07;;;24.92;;
43861;SDS011;29510;52.140;5.034;2022-12-10T04:13:24;37.78;;;20.27;;
43861;SDS011;29510;52.140;5.034;2022-12-10T04:23:44;49.67;;;21.55;;
43861;SDS011;29510;52.140;5.034;2022-12-10T04:34:04;28.40;;;15.95;;
43861;SDS011;29510;52.140;5.034;2022-12-10T04:44:05;36.40;;;16.02;;
43861;SDS011;29510;52.140;5.034;2022-12-10T04:54:06;55.83;;;21.67;;
43861;SDS011;29510;52.140;5.034;2022-12-10T05:04:09;40.75;;;17.05;;
43861;SDS011;29510;52.140;5.034;2022-12-10T05:14:12;28.27;;;14.30;;
43861;SDS011;29510;52.140;5.034;2022-12-10T05:24:15;120.25;;;23.45;;
43861;SDS011;29510;52.140;5.034;2022-12-10T05:34:17;30.02;;;15.20;;
43861;SDS011;29510;52.140;5.034;2022-12-10T05:44:18;28.13;;;14.35;;
43861;SDS011;29510;52.140;5.034;2022-12-10T05:54:19;55.20;;;19.90;;
43861;SDS011;29510;52.140;5.034;2022-12-10T06:04:20;26.23;;;14.43;;
43861;SDS011;29510;52.140;5.034;2022-12-10T06:14:21;36.22;;;17.35;;
43861;SDS011;29510;52.140;5.034;2022-12-10T06:24:23;51.95;;;19.17;;
43861;SDS011;29510;52.140;5.034;2022-12-10T06:34:24;37.72;;;16.52;;
43861;SDS011;29510;52.140;5.034;2022-12-10T06:44:25;44.33;;;16.88;;
43861;SDS011;29510;52.140;5.034;2022-12-10T06:54:26;45.58;;;18.80;;
43861;SDS011;29510;52.140;5.034;2022-12-10T07:04:27;80.10;;;18.17;;
43861;SDS011;29510;52.140;5.034;2022-12-10T07:14:28;39.90;;;15.93;;
43861;SDS011;29510;52.140;5.034;2022-12-10T07:24:29;61.08;;;17.23;;
43861;SDS011;29510;52.140;5.034;2022-12-10T07:34:30;25.35;;;14.57;;
43861;SDS011;29510;52.140;5.034;2022-12-10T07:44:31;60.85;;;18.42;;
43861;SDS011;29510;52.140;5.034;2022-12-10T07:54:32;34.95;;;14.77;;
43861;SDS011;29510;52.140;5.034;2022-12-10T08:04:34;54.97;;;16.60;;
43861;SDS011;29510;52.140;5.034;2022-12-10T08:14:35;31.23;;;15.63;;
43861;SDS011;29510;52.140;5.034;2022-12-10T08:24:36;25.05;;;12.43;;
43861;SDS011;29510;52.140;5.034;2022-12-10T08:34:37;38.20;;;16.98;;
43861;SDS011;29510;52.140;5.034;2022-12-10T08:44:38;25.48;;;14.05;;
43861;SDS011;29510;52.140;5.034;2022-12-10T08:54:39;30.58;;;15.77;;
43861;SDS011;29510;52.140;5.034;2022-12-10T09:04:40;123.00;;;23.90;;
43861;SDS011;29510;52.140;5.034;2022-12-10T09:14:42;43.92;;;18.40;;
43861;SDS011;29510;52.140;5.034;2022-12-10T09:24:43;54.42;;;17.70;;
43861;SDS011;29510;52.140;5.034;2022-12-10T09:34:44;59.72;;;24.73;;
43861;SDS011;29510;52.140;5.034;2022-12-10T09:55:01;51.30;;;19.00;;
43861;SDS011;29510;52.140;5.034;2022-12-10T10:15:10;55.58;;;18.45;;
43861;SDS011;29510;52.140;5.034;2022-12-10T10:25:15;30.02;;;16.13;;
43861;SDS011;29510;52.140;5.034;2022-12-10T10:35:32;38.70;;;19.17;;
43861;SDS011;29510;52.140;5.034;2022-12-10T10:45:42;68.30;;;22.27;;
43861;SDS011;29510;52.140;5.034;2022-12-10T10:55:47;72.35;;;23.17;;
43861;SDS011;29510;52.140;5.034;2022-12-10T11:05:49;70.97;;;19.83;;
43861;SDS011;29510;52.140;5.034;2022-12-10T11:15:59;47.38;;;19.40;;
43861;SDS011;29510;52.140;5.034;2022-12-10T11:36:28;45.25;;;18.80;;
43861;SDS011;29510;52.140;5.034;2022-12-10T11:46:46;71.43;;;19.52;;
43861;SDS011;29510;52.140;5.034;2022-12-10T12:17:38;48.22;;;20.13;;
43861;SDS011;29510;52.140;5.034;2022-12-10T12:27:45;65.13;;;21.25;;
43861;SDS011;29510;52.140;5.034;2022-12-10T12:48:14;35.55;;;17.75;;
43861;SDS011;29510;52.140;5.034;2022-12-10T12:58:39;39.15;;;16.30;;
43861;SDS011;29510;52.140;5.034;2022-12-10T13:29:25;50.38;;;20.27;;
43861;SDS011;29510;52.140;5.034;2022-12-10T13:49:49;47.55;;;20.00;;
43861;SDS011;29510;52.140;5.034;2022-12-10T14:10:23;70.32;;;23.08;;
43861;SDS011;29510;52.140;5.034;2022-12-10T14:20:31;39.30;;;18.45;;
43861;SDS011;29510;52.140;5.034;2022-12-10T14:30:34;57.47;;;21.83;;
43861;SDS011;29510;52.140;5.034;2022-12-10T14:40:47;48.15;;;22.52;;
43861;SDS011;29510;52.140;5.034;2022-12-10T14:50:48;67.57;;;20.60;;
43861;SDS011;29510;52.140;5.034;2022-12-10T15:00:50;75.07;;;21.08;;
43861;SDS011;29510;52.140;5.034;2022-12-10T15:10:53;75.97;;;26.15;;
43861;SDS011;29510;52.140;5.034;2022-12-10T15:21:10;65.03;;;24.17;;
43861;SDS011;29510;52.140;5.034;2022-12-10T15:41:45;67.50;;;24.40;;
43861;SDS011;29510;52.140;5.034;2022-12-10T15:51:52;43.93;;;22.77;;
43861;SDS011;29510;52.140;5.034;2022-12-10T16:01:53;67.78;;;27.15;;
43861;SDS011;29510;52.140;5.034;2022-12-10T16:11:55;73.40;;;29.60;;
43861;SDS011;29510;52.140;5.034;2022-12-10T16:21:56;52.05;;;24.63;;
43861;SDS011;29510;52.140;5.034;2022-12-10T16:31:57;49.75;;;24.75;;
43861;SDS011;29510;52.140;5.034;2022-12-10T16:41:58;51.03;;;21.60;;
43861;SDS011;29510;52.140;5.034;2022-12-10T16:51:59;78.47;;;29.73;;
43861;SDS011;29510;52.140;5.034;2022-12-10T17:02:00;53.85;;;23.20;;
43861;SDS011;29510;52.140;5.034;2022-12-10T17:12:01;62.30;;;21.35;;
43861;SDS011;29510;52.140;5.034;2022-12-10T17:22:02;47.38;;;21.20;;
43861;SDS011;29510;52.140;5.034;2022-12-10T17:32:05;71.55;;;23.38;;
43861;SDS011;29510;52.140;5.034;2022-12-10T17:42:07;63.03;;;23.52;;
43861;SDS011;29510;52.140;5.034;2022-12-10T17:52:09;71.70;;;26.45;;
43861;SDS011;29510;52.140;5.034;2022-12-10T18:02:10;60.50;;;26.55;;
43861;SDS011;29510;52.140;5.034;2022-12-10T18:12:11;65.60;;;24.25;;
43861;SDS011;29510;52.140;5.034;2022-12-10T18:22:12;85.90;;;29.73;;
43861;SDS011;29510;52.140;5.034;2022-12-10T18:32:13;84.45;;;33.88;;
43861;SDS011;29510;52.140;5.034;2022-12-10T18:42:14;60.80;;;23.27;;
43861;SDS011;29510;52.140;5.034;2022-12-10T18:52:15;62.33;;;27.23;;
43861;SDS011;29510;52.140;5.034;2022-12-10T19:02:17;67.47;;;25.13;;
43861;SDS011;29510;52.140;5.034;2022-12-10T19:12:18;61.70;;;27.58;;
43861;SDS011;29510;52.140;5.034;2022-12-10T19:22:19;79.25;;;31.33;;
43861;SDS011;29510;52.140;5.034;2022-12-10T19:32:20;87.40;;;31.80;;
43861;SDS011;29510;52.140;5.034;2022-12-10T19:42:21;90.65;;;30.92;;
43861;SDS011;29510;52.140;5.034;2022-12-10T19:52:22;64.35;;;27.95;;
43861;SDS011;29510;52.140;5.034;2022-12-10T20:02:23;87.65;;;29.95;;
43861;SDS011;29510;52.140;5.034;2022-12-10T20:12:24;60.60;;;24.33;;
43861;SDS011;29510;52.140;5.034;2022-12-10T20:22:25;68.10;;;27.50;;
43861;SDS011;29510;52.140;5.034;2022-12-10T20:32:26;60.10;;;27.05;;
43861;SDS011;29510;52.140;5.034;2022-12-10T20:42:27;59.75;;;26.25;;
43861;SDS011;29510;52.140;5.034;2022-12-10T20:52:28;63.78;;;32.00;;
43861;SDS011;29510;52.140;5.034;2022-12-10T21:02:29;56.50;;;24.15;;
43861;SDS011;29510;52.140;5.034;2022-12-10T21:12:30;53.05;;;25.65;;
43861;SDS011;29510;52.140;5.034;2022-12-10T21:22:31;72.22;;;26.02;;
43861;SDS011;29510;52.140;5.034;2022-12-10T21:32:32;80.28;;;32.95;;
43861;SDS011;29510;52.140;5.034;2022-12-10T21:42:34;57.65;;;23.45;;
43861;SDS011;29510;52.140;5.034;2022-12-10T21:52:53;72.35;;;32.53;;
43861;SDS011;29510;52.140;5.034;2022-12-10T22:02:54;60.70;;;26.75;;
43861;SDS011;29510;52.140;5.034;2022-12-10T22:12:55;67.35;;;28.77;;
43861;SDS011;29510;52.140;5.034;2022-12-10T22:22:57;64.43;;;28.67;;
43861;SDS011;29510;52.140;5.034;2022-12-10T22:32:58;75.45;;;34.80;;
43861;SDS011;29510;52.140;5.034;2022-12-10T22:42:59;69.38;;;33.47;;
43861;SDS011;29510;52.140;5.034;2022-12-10T22:53:00;62.22;;;26.90;;
43861;SDS011;29510;52.140;5.034;2022-12-10T23:03:01;61.58;;;25.58;;
43861;SDS011;29510;52.140;5.034;2022-12-10T23:13:02;69.60;;;26.88;;
43861;SDS011;29510;52.140;5.034;2022-12-10T23:23:06;60.17;;;26.83;;
43861;SDS011;29510;52.140;5.034;2022-12-10T23:33:07;67.72;;;27.88;;
43861;SDS011;29510;52.140;5.034;2022-12-10T23:43:09;56.70;;;23.98;;
43861;SDS011;29510;52.140;5.034;2022-12-10T23:53:11;51.03;;;23.90;;
